sensor_id;sensor_type;location;lat;lon;timestamp;pressure;altitude;pressure_sealevel;temperature;humidity
69630;BME280;56857;52.212;5.496;2023-04-01T00:00:03;99109.50;;;9.66;100.00
69630;BME280;56857;52.212;5.496;2023-04-01T00:02:30;99106.44;;;9.69;100.00
69630;BME280;56857;52.212;5.496;2023-04-01T00:04:55;99104.59;;;9.70;100.00
69630;BME280;56857;52.212;5.496;2023-04-01T00:07:21;99102.75;;;9.70;100.00
69630;BME280;56857;52.212;5.496;2023-04-01T00:09:46;99112.34;;;9.71;100.00
69630;BME280;56857;52.212;5.496;2023-04-01T00:12:11;99112.13;;;9.73;100.00
69630;BME280;56857;52.212;5.496;2023-04-01T00:14:37;99120.06;;;9.73;100.00
69630;BME280;56857;52.212;5.496;2023-04-01T00:17:02;99112.94;;;9.73;100.00
69630;BME280;56857;52.212;5.496;2023-04-01T00:19:28;99115.19;;;9.77;100.00
69630;BME280;56857;52.212;5.496;2023-04-01T00:21:53;99112.75;;;9.75;100.00
69630;BME280;56857;52.212;5.496;2023-04-01T00:24:19;99116.41;;;9.74;100.00
69630;BME280;56857;52.212;5.496;2023-04-01T00:26:46;99113.97;;;9.72;100.00
69630;BME280;56857;52.212;5.496;2023-04-01T00:29:11;99120.28;;;9.71;100.00
69630;BME280;56857;52.212;5.496;2023-04-01T00:31:38;99117.84;;;9.70;100.00
69630;BME280;56857;52.212;5.496;2023-04-01T00:34:03;99111.53;;;9.71;100.00
69630;BME280;56857;52.212;5.496;2023-04-01T00:36:28;99120.28;;;9.71;100.00
69630;BME280;56857;52.212;5.496;2023-04-01T00:38:54;99118.44;;;9.72;100.00
69630;BME280;56857;52.212;5.496;2023-04-01T00:41:20;99120.47;;;9.70;100.00
69630;BME280;56857;52.212;5.496;2023-04-01T00:43:47;99115.19;;;9.70;100.00
69630;BME280;56857;52.212;5.496;2023-04-01T00:46:13;99117.84;;;9.70;100.00
69630;BME280;56857;52.212;5.496;2023-04-01T00:48:45;99122.13;;;9.71;100.00
69630;BME280;56857;52.212;5.496;2023-04-01T00:51:27;99130.88;;;9.71;100.00
69630;BME280;56857;52.212;5.496;2023-04-01T00:53:56;99128.63;;;9.75;100.00
69630;BME280;56857;52.212;5.496;2023-04-01T00:56:35;99126.78;;;9.75;100.00
69630;BME280;56857;52.212;5.496;2023-04-01T00:59:04;99131.88;;;9.77;100.00
69630;BME280;56857;52.212;5.496;2023-04-01T01:01:32;99138.00;;;9.78;100.00
69630;BME280;56857;52.212;5.496;2023-04-01T01:03:58;99133.91;;;9.75;100.00
69630;BME280;56857;52.212;5.496;2023-04-01T01:09:23;99144.69;;;9.73;100.00
69630;BME280;56857;52.212;5.496;2023-04-01T01:14:57;99146.13;;;9.69;100.00
69630;BME280;56857;52.212;5.496;2023-04-01T01:20:53;99142.28;;;9.65;100.00
69630;BME280;56857;52.212;5.496;2023-04-01T01:23:43;99145.34;;;9.62;100.00
69630;BME280;56857;52.212;5.496;2023-04-01T01:35:07;99139.22;;;9.55;100.00
69630;BME280;56857;52.212;5.496;2023-04-01T01:37:38;99144.72;;;9.54;100.00
69630;BME280;56857;52.212;5.496;2023-04-01T01:40:09;99149.59;;;9.50;100.00
69630;BME280;56857;52.212;5.496;2023-04-01T01:42:38;99153.28;;;9.49;100.00
69630;BME280;56857;52.212;5.496;2023-04-01T01:45:06;99149.59;;;9.50;100.00
69630;BME280;56857;52.212;5.496;2023-04-01T01:47:34;99152.03;;;9.51;100.00
69630;BME280;56857;52.212;5.496;2023-04-01T01:50:02;99150.63;;;9.49;100.00
69630;BME280;56857;52.212;5.496;2023-04-01T01:52:29;99150.63;;;9.49;100.00
69630;BME280;56857;52.212;5.496;2023-04-01T01:54:56;99162.22;;;9.48;100.00
69630;BME280;56857;52.212;5.496;2023-04-01T01:57:31;99161.81;;;9.44;100.00
69630;BME280;56857;52.212;5.496;2023-04-01T02:00:03;99156.13;;;9.41;100.00
69630;BME280;56857;52.212;5.496;2023-04-01T02:02:31;99159.38;;;9.43;100.00
69630;BME280;56857;52.212;5.496;2023-04-01T02:04:56;99156.91;;;9.41;100.00
69630;BME280;56857;52.212;5.496;2023-04-01T02:07:33;99159.97;;;9.38;100.00
69630;BME280;56857;52.212;5.496;2023-04-01T02:10:08;99150.81;;;9.41;100.00
69630;BME280;56857;52.212;5.496;2023-04-01T02:12:36;99162.44;;;9.40;100.00
69630;BME280;56857;52.212;5.496;2023-04-01T02:15:09;99159.97;;;9.38;100.00
69630;BME280;56857;52.212;5.496;2023-04-01T02:17:40;99166.88;;;9.39;100.00
69630;BME280;56857;52.212;5.496;2023-04-01T02:20:19;99166.88;;;9.39;100.00
69630;BME280;56857;52.212;5.496;2023-04-01T02:22:54;99170.13;;;9.41;100.00
69630;BME280;56857;52.212;5.496;2023-04-01T02:25:26;99166.69;;;9.41;100.00
69630;BME280;56857;52.212;5.496;2023-04-01T02:27:55;99165.88;;;9.40;100.00
69630;BME280;56857;52.212;5.496;2023-04-01T02:30:22;99166.28;;;9.37;100.00
69630;BME280;56857;52.212;5.496;2023-04-01T02:32:49;99176.66;;;9.39;100.00
69630;BME280;56857;52.212;5.496;2023-04-01T02:35:15;99176.06;;;9.37;100.00
69630;BME280;56857;52.212;5.496;2023-04-01T02:37:45;99173.41;;;9.37;100.00
69630;BME280;56857;52.212;5.496;2023-04-01T02:40:13;99169.34;;;9.34;100.00
69630;BME280;56857;52.212;5.496;2023-04-01T02:42:45;99164.44;;;9.31;100.00
69630;BME280;56857;52.212;5.496;2023-04-01T02:45:10;99177.84;;;9.29;100.00
69630;BME280;56857;52.212;5.496;2023-04-01T02:47:38;99168.94;;;9.31;100.00
69630;BME280;56857;52.212;5.496;2023-04-01T02:50:04;99168.94;;;9.31;100.00
69630;BME280;56857;52.212;5.496;2023-04-01T02:52:31;99181.34;;;9.30;100.00
69630;BME280;56857;52.212;5.496;2023-04-01T02:54:57;99175.03;;;9.31;100.00
69630;BME280;56857;52.212;5.496;2023-04-01T02:57:24;99176.84;;;9.31;100.00
69630;BME280;56857;52.212;5.496;2023-04-01T02:59:50;99185.59;;;9.31;100.00
69630;BME280;56857;52.212;5.496;2023-04-01T03:02:21;99184.78;;;9.31;100.00
69630;BME280;56857;52.212;5.496;2023-04-01T03:04:59;99185.38;;;9.33;100.00
69630;BME280;56857;52.212;5.496;2023-04-01T03:07:24;99187.63;;;9.36;100.00
69630;BME280;56857;52.212;5.496;2023-04-01T03:09:50;99188.03;;;9.39;100.00
69630;BME280;56857;52.212;5.496;2023-04-01T03:12:19;99195.78;;;9.41;100.00
69630;BME280;56857;52.212;5.496;2023-04-01T03:14:46;99191.69;;;9.38;100.00
69630;BME280;56857;52.212;5.496;2023-04-01T03:17:14;99195.97;;;9.39;100.00
69630;BME280;56857;52.212;5.496;2023-04-01T03:19:39;99196.59;;;9.41;100.00
69630;BME280;56857;52.212;5.496;2023-04-01T03:22:05;99200.25;;;9.40;100.00
69630;BME280;56857;52.212;5.496;2023-04-01T03:24:32;99205.34;;;9.42;100.00
69630;BME280;56857;52.212;5.496;2023-04-01T03:27:05;99209.41;;;9.44;100.00
69630;BME280;56857;52.212;5.496;2023-04-01T03:29:31;99210.63;;;9.48;100.00
69630;BME280;56857;52.212;5.496;2023-04-01T03:31:58;99213.28;;;9.55;100.00
69630;BME280;56857;52.212;5.496;2023-04-01T03:34:24;99212.88;;;9.58;100.00
69630;BME280;56857;52.212;5.496;2023-04-01T03:36:51;99214.13;;;9.62;100.00
69630;BME280;56857;52.212;5.496;2023-04-01T03:39:16;99217.97;;;9.66;100.00
69630;BME280;56857;52.212;5.496;2023-04-01T03:41:42;99218.59;;;9.68;100.00
69630;BME280;56857;52.212;5.496;2023-04-01T03:44:07;99225.31;;;9.71;100.00
69630;BME280;56857;52.212;5.496;2023-04-01T03:46:33;99221.66;;;9.72;100.00
69630;BME280;56857;52.212;5.496;2023-04-01T03:49:02;99224.28;;;9.72;100.00
69630;BME280;56857;52.212;5.496;2023-04-01T03:51:28;99225.91;;;9.73;100.00
69630;BME280;56857;52.212;5.496;2023-04-01T03:53:55;99234.25;;;9.70;100.00
69630;BME280;56857;52.212;5.496;2023-04-01T03:56:21;99231.00;;;9.68;100.00
69630;BME280;56857;52.212;5.496;2023-04-01T03:58:46;99239.34;;;9.65;100.00
69630;BME280;56857;52.212;5.496;2023-04-01T04:01:20;99237.31;;;9.67;100.00
69630;BME280;56857;52.212;5.496;2023-04-01T04:03:46;99237.72;;;9.70;100.00
69630;BME280;56857;52.212;5.496;2023-04-01T04:06:13;99243.00;;;9.70;100.00
69630;BME280;56857;52.212;5.496;2023-04-01T04:08:57;99247.88;;;9.67;100.00
69630;BME280;56857;52.212;5.496;2023-04-01T04:11:25;99247.47;;;9.63;100.00
69630;BME280;56857;52.212;5.496;2023-04-01T04:13:50;99254.38;;;9.64;100.00
69630;BME280;56857;52.212;5.496;2023-04-01T04:16:35;99253.81;;;9.62;100.00
69630;BME280;56857;52.212;5.496;2023-04-01T04:19:00;99263.56;;;9.62;100.00
69630;BME280;56857;52.212;5.496;2023-04-01T04:21:38;99270.47;;;9.56;100.00
69630;BME280;56857;52.212;5.496;2023-04-01T04:24:14;99271.47;;;9.55;100.00
69630;BME280;56857;52.212;5.496;2023-04-01T04:26:40;99276.34;;;9.51;100.00
69630;BME280;56857;52.212;5.496;2023-04-01T04:29:05;99282.69;;;9.57;100.00
69630;BME280;56857;52.212;5.496;2023-04-01T04:31:31;99283.91;;;9.61;100.00
69630;BME280;56857;52.212;5.496;2023-04-01T04:34:02;99281.69;;;9.65;100.00
69630;BME280;56857;52.212;5.496;2023-04-01T04:36:27;99288.38;;;9.67;100.00
69630;BME280;56857;52.212;5.496;2023-04-01T04:38:53;99296.53;;;9.72;100.00
69630;BME280;56857;52.212;5.496;2023-04-01T04:41:20;99298.38;;;9.72;100.00
69630;BME280;56857;52.212;5.496;2023-04-01T04:43:52;99308.56;;;9.75;100.00
69630;BME280;56857;52.212;5.496;2023-04-01T04:46:21;99305.69;;;9.70;100.00
69630;BME280;56857;52.212;5.496;2023-04-01T04:48:46;99298.78;;;9.69;100.00
69630;BME280;56857;52.212;5.496;2023-04-01T04:51:16;99311.41;;;9.73;100.00
69630;BME280;56857;52.212;5.496;2023-04-01T04:53:44;99310.00;;;9.78;100.00
69630;BME280;56857;52.212;5.496;2023-04-01T04:56:12;99321.81;;;9.82;100.00
69630;BME280;56857;52.212;5.496;2023-04-01T04:58:38;99329.34;;;9.85;100.00
69630;BME280;56857;52.212;5.496;2023-04-01T05:01:14;99329.53;;;9.77;100.00
69630;BME280;56857;52.212;5.496;2023-04-01T05:03:40;99331.75;;;9.80;100.00
69630;BME280;56857;52.212;5.496;2023-04-01T05:06:07;99327.09;;;9.82;100.00
69630;BME280;56857;52.212;5.496;2023-04-01T05:08:36;99336.66;;;9.83;100.00
69630;BME280;56857;52.212;5.496;2023-04-01T05:13:57;99338.88;;;9.79;100.00
69630;BME280;56857;52.212;5.496;2023-04-01T05:16:22;99344.59;;;9.83;100.00
69630;BME280;56857;52.212;5.496;2023-04-01T05:18:47;99352.94;;;9.86;100.00
69630;BME280;56857;52.212;5.496;2023-04-01T05:21:17;99354.59;;;9.87;100.00
69630;BME280;56857;52.212;5.496;2023-04-01T05:23:43;99357.66;;;9.91;100.00
69630;BME280;56857;52.212;5.496;2023-04-01T05:26:13;99354.19;;;9.90;100.00
69630;BME280;56857;52.212;5.496;2023-04-01T05:28:39;99360.09;;;9.92;100.00
69630;BME280;56857;52.212;5.496;2023-04-01T05:31:05;99364.56;;;9.92;100.00
69630;BME280;56857;52.212;5.496;2023-04-01T05:33:31;99372.31;;;9.93;100.00
69630;BME280;56857;52.212;5.496;2023-04-01T05:36:08;99375.38;;;9.90;100.00
69630;BME280;56857;52.212;5.496;2023-04-01T05:38:34;99382.50;;;9.90;100.00
69630;BME280;56857;52.212;5.496;2023-04-01T05:41:01;99380.66;;;9.90;100.00
69630;BME280;56857;52.212;5.496;2023-04-01T05:43:26;99388.78;;;9.89;100.00
69630;BME280;56857;52.212;5.496;2023-04-01T05:45:52;99385.94;;;9.84;100.00
69630;BME280;56857;52.212;5.496;2023-04-01T05:48:26;99396.94;;;9.81;100.00
69630;BME280;56857;52.212;5.496;2023-04-01T05:50:58;99397.50;;;9.76;100.00
69630;BME280;56857;52.212;5.496;2023-04-01T05:53:30;99401.19;;;9.75;100.00
69630;BME280;56857;52.212;5.496;2023-04-01T05:55:55;99406.47;;;9.75;100.00
69630;BME280;56857;52.212;5.496;2023-04-01T05:58:38;99404.63;;;9.75;100.00
69630;BME280;56857;52.212;5.496;2023-04-01T06:01:10;99408.72;;;9.71;100.00
69630;BME280;56857;52.212;5.496;2023-04-01T06:03:36;99412.97;;;9.72;100.00
69630;BME280;56857;52.212;5.496;2023-04-01T06:06:02;99416.44;;;9.73;100.00
69630;BME280;56857;52.212;5.496;2023-04-01T06:08:30;99412.97;;;9.72;100.00
69630;BME280;56857;52.212;5.496;2023-04-01T06:25:23;99447.63;;;9.84;100.00
69630;BME280;56857;52.212;5.496;2023-04-01T06:39:06;99466.16;;;9.84;100.00
69630;BME280;56857;52.212;5.496;2023-04-01T06:44:16;99473.28;;;9.84;100.00
69630;BME280;56857;52.212;5.496;2023-04-01T06:47:11;99472.66;;;9.82;100.00
69630;BME280;56857;52.212;5.496;2023-04-01T06:50:00;99476.31;;;9.81;100.00
69630;BME280;56857;52.212;5.496;2023-04-01T06:52:50;99486.91;;;9.81;100.00
69630;BME280;56857;52.212;5.496;2023-04-01T06:57:52;99502.78;;;9.81;100.00
69630;BME280;56857;52.212;5.496;2023-04-01T07:00:35;99497.88;;;9.78;100.00
69630;BME280;56857;52.212;5.496;2023-04-01T07:03:10;99504.81;;;9.79;100.00
69630;BME280;56857;52.212;5.496;2023-04-01T07:05:42;99512.94;;;9.77;100.00
69630;BME280;56857;52.212;5.496;2023-04-01T07:08:15;99511.94;;;9.78;100.00
69630;BME280;56857;52.212;5.496;2023-04-01T07:10:58;99523.72;;;9.75;100.00
69630;BME280;56857;52.212;5.496;2023-04-01T07:13:43;99526.38;;;9.75;100.00
69630;BME280;56857;52.212;5.496;2023-04-01T07:16:25;99528.00;;;9.77;100.00
69630;BME280;56857;52.212;5.496;2023-04-01T07:20:10;99530.25;;;9.80;100.00
69630;BME280;56857;52.212;5.496;2023-04-01T07:22:29;99540.25;;;9.84;100.00
69630;BME280;56857;52.212;5.496;2023-04-01T07:24:54;99543.50;;;9.86;100.00
69630;BME280;56857;52.212;5.496;2023-04-01T07:27:20;99553.28;;;9.86;100.00
69630;BME280;56857;52.212;5.496;2023-04-01T07:29:45;99549.66;;;9.87;100.00
69630;BME280;56857;52.212;5.496;2023-04-01T07:32:32;99551.06;;;9.89;100.00
69630;BME280;56857;52.212;5.496;2023-04-01T07:51:28;99586.53;;;9.95;100.00
69630;BME280;56857;52.212;5.496;2023-04-01T07:54:11;99586.53;;;9.95;100.00
69630;BME280;56857;52.212;5.496;2023-04-01T07:59:24;99600.00;;;10.00;100.00
69630;BME280;56857;52.212;5.496;2023-04-01T08:05:02;99602.25;;;10.03;100.00
69630;BME280;56857;52.212;5.496;2023-04-01T08:07:53;99608.78;;;10.07;100.00
69630;BME280;56857;52.212;5.496;2023-04-01T08:13:14;99622.06;;;10.14;100.00
69630;BME280;56857;52.212;5.496;2023-04-01T08:16:06;99631.44;;;10.16;100.00
69630;BME280;56857;52.212;5.496;2023-04-01T08:21:58;99635.94;;;10.16;100.00
69630;BME280;56857;52.212;5.496;2023-04-01T08:24:43;99642.84;;;10.17;100.00
69630;BME280;56857;52.212;5.496;2023-04-01T08:27:20;99638.59;;;10.23;100.00
69630;BME280;56857;52.212;5.496;2023-04-01T08:29:59;99646.81;;;10.28;100.00
69630;BME280;56857;52.212;5.496;2023-04-01T08:32:37;99653.78;;;10.35;100.00
69630;BME280;56857;52.212;5.496;2023-04-01T08:35:24;99656.03;;;10.38;100.00
69630;BME280;56857;52.212;5.496;2023-04-01T08:37:52;99661.75;;;10.42;100.00
69630;BME280;56857;52.212;5.496;2023-04-01T08:43:23;99666.69;;;10.52;100.00
69630;BME280;56857;52.212;5.496;2023-04-01T08:49:27;99682.41;;;10.60;100.00
69630;BME280;56857;52.212;5.496;2023-04-01T08:52:27;99683.41;;;10.59;100.00
69630;BME280;56857;52.212;5.496;2023-04-01T08:55:49;99682.41;;;10.60;100.00
69630;BME280;56857;52.212;5.496;2023-04-01T09:07:50;99703.84;;;10.72;100.00
69630;BME280;56857;52.212;5.496;2023-04-01T09:13:09;99717.56;;;10.75;100.00
69630;BME280;56857;52.212;5.496;2023-04-01T09:18:34;99718.53;;;10.74;100.00
69630;BME280;56857;52.212;5.496;2023-04-01T09:30:06;99727.84;;;11.11;100.00
69630;BME280;56857;52.212;5.496;2023-04-01T09:41:07;99735.91;;;11.45;100.00
69630;BME280;56857;52.212;5.496;2023-04-01T09:55:00;99750.22;;;11.70;100.00
69630;BME280;56857;52.212;5.496;2023-04-01T10:00:58;99761.66;;;11.77;100.00
69630;BME280;56857;52.212;5.496;2023-04-01T10:06:59;99768.97;;;11.75;
69630;BME280;56857;52.212;5.496;2023-04-01T10:27:16;99794.84;;;11.33;100.00
69630;BME280;56857;52.212;5.496;2023-04-01T10:38:26;99797.72;;;11.32;100.00
69630;BME280;56857;52.212;5.496;2023-04-01T10:56:33;99816.25;;;11.25;100.00
69630;BME280;56857;52.212;5.496;2023-04-01T10:59:23;99823.38;;;11.25;100.00
69630;BME280;56857;52.212;5.496;2023-04-01T11:02:34;99825.22;;;11.24;100.00
69630;BME280;56857;52.212;5.496;2023-04-01T11:05:29;99822.78;;;11.23;100.00
69630;BME280;56857;52.212;5.496;2023-04-01T11:08:25;99829.28;;;11.20;100.00
69630;BME280;56857;52.212;5.496;2023-04-01T11:23:20;99837.84;;;11.22;100.00
69630;BME280;56857;52.212;5.496;2023-04-01T11:28:27;99837.66;;;11.17;100.00
69630;BME280;56857;52.212;5.496;2023-04-01T11:34:32;99867.63;;;11.18;100.00
69630;BME280;56857;52.212;5.496;2023-04-01T11:40:20;99873.34;;;11.14;100.00
69630;BME280;56857;52.212;5.496;2023-04-01T11:43:12;99874.38;;;11.13;100.00
69630;BME280;56857;52.212;5.496;2023-04-01T11:49:05;99884.59;;;11.17;100.00
69630;BME280;56857;52.212;5.496;2023-04-01T11:51:51;99889.88;;;11.17;100.00
69630;BME280;56857;52.212;5.496;2023-04-01T11:55:10;99885.41;;;11.17;100.00
69630;BME280;56857;52.212;5.496;2023-04-01T12:09:25;99899.72;;;11.23;100.00
69630;BME280;56857;52.212;5.496;2023-04-01T12:12:13;99914.84;;;11.29;100.00
69630;BME280;56857;52.212;5.496;2023-04-01T12:15:02;99917.91;;;11.26;100.00
69630;BME280;56857;52.212;5.496;2023-04-01T12:29:35;99935.13;;;11.50;100.00
69630;BME280;56857;52.212;5.496;2023-04-01T12:38:22;99942.81;;;11.73;100.00
69630;BME280;56857;52.212;5.496;2023-04-01T12:41:18;99949.75;;;11.74;100.00
69630;BME280;56857;52.212;5.496;2023-04-01T12:52:12;99957.06;;;11.65;100.00
69630;BME280;56857;52.212;5.496;2023-04-01T12:55:09;99963.00;;;11.67;100.00
69630;BME280;56857;52.212;5.496;2023-04-01T13:03:12;99964.38;;;11.63;100.00
69630;BME280;56857;52.212;5.496;2023-04-01T13:14:32;99980.00;;;11.38;100.00
69630;BME280;56857;52.212;5.496;2023-04-01T13:17:04;99988.56;;;11.40;100.00
69630;BME280;56857;52.212;5.496;2023-04-01T13:19:38;99986.94;;;11.39;100.00
69630;BME280;56857;52.212;5.496;2023-04-01T13:22:38;99995.72;;;11.40;100.00
69630;BME280;56857;52.212;5.496;2023-04-01T13:28:00;100001.66;;;11.42;100.00
69630;BME280;56857;52.212;5.496;2023-04-01T13:30:37;100003.06;;;11.44;100.00
69630;BME280;56857;52.212;5.496;2023-04-01T13:34:00;100005.69;;;11.37;100.00
69630;BME280;56857;52.212;5.496;2023-04-01T13:42:05;100018.66;;;11.19;100.00
69630;BME280;56857;52.212;5.496;2023-04-01T13:44:51;100024.75;;;11.13;100.00
69630;BME280;56857;52.212;5.496;2023-04-01T13:50:46;100027.84;;;10.95;100.00
69630;BME280;56857;52.212;5.496;2023-04-01T13:53:30;100033.91;;;10.89;100.00
69630;BME280;56857;52.212;5.496;2023-04-01T13:56:14;100039.97;;;10.83;100.00
69630;BME280;56857;52.212;5.496;2023-04-01T13:58:55;100043.84;;;10.80;100.00
69630;BME280;56857;52.212;5.496;2023-04-01T14:04:14;100057.66;;;10.76;100.00
69630;BME280;56857;52.212;5.496;2023-04-01T14:12:15;100068.75;;;10.64;100.00
69630;BME280;56857;52.212;5.496;2023-04-01T14:14:56;100079.19;;;10.66;100.00
69630;BME280;56857;52.212;5.496;2023-04-01T14:28:37;100101.81;;;10.47;100.00
69630;BME280;56857;52.212;5.496;2023-04-01T14:42:14;100130.31;;;10.45;100.00
69630;BME280;56857;52.212;5.496;2023-04-01T14:44:58;100129.50;;;10.44;100.00
69630;BME280;56857;52.212;5.496;2023-04-01T14:50:41;100135.53;;;10.53;100.00
69630;BME280;56857;52.212;5.496;2023-04-01T14:55:53;100158.16;;;10.56;100.00
69630;BME280;56857;52.212;5.496;2023-04-01T14:58:22;100159.00;;;10.56;100.00
69630;BME280;56857;52.212;5.496;2023-04-01T15:14:58;100184.50;;;10.42;100.00
69630;BME280;56857;52.212;5.496;2023-04-01T15:20:29;100202.97;;;10.36;100.00
69630;BME280;56857;52.212;5.496;2023-04-01T15:23:08;100204.59;;;10.37;100.00
69630;BME280;56857;52.212;5.496;2023-04-01T15:28:50;100222.25;;;10.30;100.00
69630;BME280;56857;52.212;5.496;2023-04-01T15:31:46;100223.59;;;10.26;100.00
69630;BME280;56857;52.212;5.496;2023-04-01T15:42:47;100239.47;;;10.26;100.00
69630;BME280;56857;52.212;5.496;2023-04-01T15:48:33;100256.56;;;10.23;100.00
69630;BME280;56857;52.212;5.496;2023-04-01T15:51:16;100262.41;;;10.18;100.00
69630;BME280;56857;52.212;5.496;2023-04-01T15:53:55;100278.00;;;10.13;100.00
69630;BME280;56857;52.212;5.496;2023-04-01T15:56:41;100275.16;;;10.15;100.00
69630;BME280;56857;52.212;5.496;2023-04-01T16:05:00;100297.31;;;9.99;100.00
69630;BME280;56857;52.212;5.496;2023-04-01T16:07:55;100302.00;;;9.97;100.00
69630;BME280;56857;52.212;5.496;2023-04-01T16:13:30;100316.75;;;9.91;100.00
69630;BME280;56857;52.212;5.496;2023-04-01T16:16:21;100316.09;;;9.89;100.00
69630;BME280;56857;52.212;5.496;2023-04-01T16:22:37;100331.41;;;9.79;100.00
69630;BME280;56857;52.212;5.496;2023-04-01T16:33:40;100349.38;;;9.61;100.00
69630;BME280;56857;52.212;5.496;2023-04-01T16:36:17;100357.69;;;9.58;100.00
69630;BME280;56857;52.212;5.496;2023-04-01T16:41:51;100368.63;;;9.55;100.00
69630;BME280;56857;52.212;5.496;2023-04-01T16:44:24;100382.03;;;9.53;100.00
69630;BME280;56857;52.212;5.496;2023-04-01T16:46:52;100375.59;;;9.47;100.00
69630;BME280;56857;52.212;5.496;2023-04-01T16:49:29;100387.34;;;9.45;100.00
69630;BME280;56857;52.212;5.496;2023-04-01T16:54:58;100400.91;;;9.42;100.00
69630;BME280;56857;52.212;5.496;2023-04-01T16:57:28;100403.28;;;9.37;100.00
69630;BME280;56857;52.212;5.496;2023-04-01T17:02:49;100419.84;;;9.31;100.00
69630;BME280;56857;52.212;5.496;2023-04-01T17:05:17;100416.72;;;9.27;100.00
69630;BME280;56857;52.212;5.496;2023-04-01T17:07:59;100431.91;;;9.25;100.00
69630;BME280;56857;52.212;5.496;2023-04-01T17:16:03;100448.94;;;9.22;100.00
69630;BME280;56857;52.212;5.496;2023-04-01T17:19:12;100455.56;;;9.18;100.00
69630;BME280;56857;52.212;5.496;2023-04-01T17:24:47;100471.78;;;9.15;100.00
69630;BME280;56857;52.212;5.496;2023-04-01T17:27:39;100477.88;;;9.16;100.00
69630;BME280;56857;52.212;5.496;2023-04-01T17:30:30;100485.81;;;9.16;100.00
69630;BME280;56857;52.212;5.496;2023-04-01T17:41:08;100507.66;;;9.10;100.00
69630;BME280;56857;52.212;5.496;2023-04-01T17:43:53;100517.56;;;9.08;100.00
69630;BME280;56857;52.212;5.496;2023-04-01T17:50:15;100530.97;;;9.06;100.00
69630;BME280;56857;52.212;5.496;2023-04-01T17:53:11;100538.88;;;9.06;100.00
69630;BME280;56857;52.212;5.496;2023-04-01T17:55:53;100541.88;;;9.03;100.00
69630;BME280;56857;52.212;5.496;2023-04-01T17:58:29;100544.50;;;9.03;100.00
69630;BME280;56857;52.212;5.496;2023-04-01T18:09:34;100575.56;;;8.85;100.00
69630;BME280;56857;52.212;5.496;2023-04-01T18:12:21;100577.22;;;8.86;100.00
69630;BME280;56857;52.212;5.496;2023-04-01T18:17:40;100599.88;;;8.80;100.00
69630;BME280;56857;52.212;5.496;2023-04-01T18:25:37;100620.69;;;8.83;100.00
69630;BME280;56857;52.212;5.496;2023-04-01T18:28:19;100625.13;;;8.82;100.00
69630;BME280;56857;52.212;5.496;2023-04-01T18:33:41;100639.97;;;8.75;100.00
69630;BME280;56857;52.212;5.496;2023-04-01T18:44:48;100658.63;;;8.66;100.00
69630;BME280;56857;52.212;5.496;2023-04-01T18:50:43;100683.09;;;8.68;100.00
69630;BME280;56857;52.212;5.496;2023-04-01T18:53:30;100682.75;;;8.71;100.00
69630;BME280;56857;52.212;5.496;2023-04-01T18:56:05;100687.06;;;8.72;100.00
69630;BME280;56857;52.212;5.496;2023-04-01T19:01:25;100706.38;;;8.72;100.00
69630;BME280;56857;52.212;5.496;2023-04-01T19:09:49;100722.34;;;8.54;100.00
69630;BME280;56857;52.212;5.496;2023-04-01T19:18:40;100743.81;;;8.59;100.00
69630;BME280;56857;52.212;5.496;2023-04-01T19:32:16;100776.22;;;8.35;100.00
69630;BME280;56857;52.212;5.496;2023-04-01T19:43:29;100796.25;;;8.20;100.00
69630;BME280;56857;52.212;5.496;2023-04-01T19:49:03;100806.31;;;8.17;100.00
69630;BME280;56857;52.212;5.496;2023-04-01T19:51:39;100811.72;;;8.15;100.00
69630;BME280;56857;52.212;5.496;2023-04-01T19:54:33;100819.56;;;8.07;100.00
69630;BME280;56857;52.212;5.496;2023-04-01T20:00:31;100833.25;;;8.02;100.00
69630;BME280;56857;52.212;5.496;2023-04-01T20:03:30;100840.63;;;7.99;100.00
69630;BME280;56857;52.212;5.496;2023-04-01T20:12:00;100865.22;;;7.99;100.00
69630;BME280;56857;52.212;5.496;2023-04-01T20:14:46;100868.31;;;7.95;100.00
69630;BME280;56857;52.212;5.496;2023-04-01T20:20:00;100878.34;;;7.91;100.00
69630;BME280;56857;52.212;5.496;2023-04-01T20:26:12;100894.94;;;7.83;100.00
69630;BME280;56857;52.212;5.496;2023-04-01T20:28:36;100891.47;;;7.83;100.00
69630;BME280;56857;52.212;5.496;2023-04-01T20:34:55;100906.47;;;7.82;100.00
69630;BME280;56857;52.212;5.496;2023-04-01T20:40:32;100922.16;;;7.84;100.00
69630;BME280;56857;52.212;5.496;2023-04-01T20:51:39;100942.91;;;7.79;100.00
69630;BME280;56857;52.212;5.496;2023-04-01T21:18:14;101008.31;;;7.48;100.00
69630;BME280;56857;52.212;5.496;2023-04-01T21:50:19;101084.31;;;7.15;100.00
69630;BME280;56857;52.212;5.496;2023-04-01T21:56:20;101085.41;;;7.12;100.00
69630;BME280;56857;52.212;5.496;2023-04-01T22:07:24;101109.59;;;6.98;100.00
69630;BME280;56857;52.212;5.496;2023-04-01T22:10:00;101114.31;;;6.94;100.00
69630;BME280;56857;52.212;5.496;2023-04-01T22:12:35;101112.78;;;6.92;100.00
69630;BME280;56857;52.212;5.496;2023-04-01T22:15:11;101122.34;;;6.93;100.00
69630;BME280;56857;52.212;5.496;2023-04-01T22:20:47;101128.03;;;6.88;100.00
69630;BME280;56857;52.212;5.496;2023-04-01T22:23:31;101136.34;;;6.84;100.00
69630;BME280;56857;52.212;5.496;2023-04-01T22:26:34;101138.56;;;6.79;100.00
69630;BME280;56857;52.212;5.496;2023-04-01T22:29:23;101139.50;;;6.78;100.00
69630;BME280;56857;52.212;5.496;2023-04-01T22:32:17;101145.50;;;6.80;100.00
69630;BME280;56857;52.212;5.496;2023-04-01T22:35:08;101145.66;;;6.78;100.00
69630;BME280;56857;52.212;5.496;2023-04-01T22:40:45;101154.66;;;6.76;100.00
69630;BME280;56857;52.212;5.496;2023-04-01T22:43:36;101172.38;;;6.73;100.00
69630;BME280;56857;52.212;5.496;2023-04-01T22:49:07;101178.06;;;6.69;100.00
69630;BME280;56857;52.212;5.496;2023-04-01T22:52:13;101186.38;;;6.64;100.00
69630;BME280;56857;52.212;5.496;2023-04-01T22:54:45;101180.00;;;6.67;100.00